Turinsk, Russia
Current Conditions -  °F | °C
As of 3:00 AM on Monday 24 Nov 2014 (Local Time) from USTR Reporting Station
Clear Clear  
Wind Chill: -33°   Ceiling: Unl
Heat Index: -11°   Visibility: 6mi
Dew Point: -17°   Wind: 13mph
Humidity: 77%   Direction: 310°NW
Pressure: 30.42"   Gusts: NA
Location:  58.05°N, 63.7°E
Report Text: USTR 232200Z 31006MPS CAVOK M24/M27 Q1030 NOSIG RMK QFE762/101603450160 12790029
Loading
Personal Weather Stations






























Interactive Weather Map New forecast layout! Learn more

10-Day Weather Forecast

Advertisements
Track Severe Weather on mobile